createdAt,value
2019-02-21T00:02:16.061Z,23.20
2019-02-21T00:04:42.968Z,25.77
2019-02-21T00:07:09.993Z,28.32
2019-02-21T00:09:37.007Z,22.75
2019-02-21T00:12:04.233Z,27.93
2019-02-21T00:14:31.149Z,26.12
2019-02-21T00:16:58.146Z,30.97
2019-02-21T00:19:25.185Z,26.95
2019-02-21T00:21:51.995Z,24.72
2019-02-21T00:24:18.813Z,22.00
2019-02-21T00:26:45.718Z,28.90
2019-02-21T00:29:12.625Z,29.85
2019-02-21T00:31:40.185Z,25.80
2019-02-21T00:34:07.350Z,29.52
2019-02-21T00:36:34.268Z,30.05
2019-02-21T00:39:01.134Z,27.45
2019-02-21T00:41:28.034Z,26.27
2019-02-21T00:43:54.851Z,22.85
2019-02-21T00:46:21.765Z,28.15
2019-02-21T00:48:48.574Z,21.25
2019-02-21T00:51:15.395Z,20.75
2019-02-21T00:53:43.113Z,25.15
2019-02-21T00:56:10.125Z,26.55
2019-02-21T00:58:36.962Z,28.50
2019-02-21T01:01:04.033Z,27.02
2019-02-21T01:03:31.032Z,24.75
2019-02-21T01:05:57.945Z,22.98
2019-02-21T01:08:24.957Z,27.48
2019-02-21T01:10:51.941Z,21.20
2019-02-21T01:13:18.850Z,24.57
2019-02-21T01:15:45.804Z,26.50
2019-02-21T01:18:12.902Z,24.60
2019-02-21T01:20:39.922Z,28.55
2019-02-21T01:23:06.829Z,24.55
2019-02-21T01:25:33.760Z,29.45
2019-02-21T01:28:00.826Z,28.83
2019-02-21T01:30:27.753Z,27.65
2019-02-21T01:32:54.701Z,35.38
2019-02-21T01:35:21.727Z,31.95
2019-02-21T01:37:48.641Z,32.00
2019-02-21T01:40:15.492Z,30.37
2019-02-21T01:42:42.584Z,28.30
2019-02-21T01:45:09.509Z,31.55
2019-02-21T01:47:36.313Z,33.55
2019-02-21T01:50:03.646Z,30.92
2019-02-21T01:52:30.554Z,32.08
2019-02-21T01:54:57.371Z,32.38
2019-02-21T01:57:24.335Z,28.27
2019-02-21T01:59:51.329Z,31.55
2019-02-21T02:02:18.339Z,32.50
2019-02-21T02:04:45.249Z,30.95
2019-02-21T02:07:12.158Z,31.93
2019-02-21T02:09:38.959Z,36.60
2019-02-21T02:12:05.990Z,32.15
2019-02-21T02:14:33.034Z,31.50
2019-02-21T02:16:59.951Z,27.40
2019-02-21T02:19:26.854Z,28.62
2019-02-21T02:21:53.760Z,29.52
2019-02-21T02:24:20.646Z,27.65
2019-02-21T02:26:47.507Z,31.62
2019-02-21T02:29:14.565Z,36.30
2019-02-21T02:31:41.680Z,32.60
2019-02-21T02:34:08.575Z,35.88
2019-02-21T02:36:35.365Z,35.68
2019-02-21T02:39:02.349Z,36.15
2019-02-21T02:41:29.199Z,32.28
2019-02-21T02:43:56.146Z,31.15
2019-02-21T02:46:22.956Z,32.45
2019-02-21T02:48:49.934Z,39.65
2019-02-21T02:51:16.869Z,40.25
2019-02-21T02:53:44.179Z,32.00
2019-02-21T02:56:11.092Z,32.45
2019-02-21T02:58:37.875Z,28.60
2019-02-21T03:01:04.747Z,36.73
2019-02-21T03:03:31.534Z,37.28
2019-02-21T03:05:58.427Z,34.80
2019-02-21T03:08:25.303Z,32.60
2019-02-21T03:10:52.217Z,34.05
2019-02-21T03:13:19.099Z,34.27
2019-02-21T03:15:45.984Z,36.53
2019-02-21T03:18:12.767Z,36.50
2019-02-21T03:20:39.662Z,36.23
2019-02-21T03:23:06.448Z,37.60
2019-02-21T03:25:33.266Z,33.85
2019-02-21T03:28:00.139Z,36.58
2019-02-21T03:30:27.105Z,35.40
2019-02-21T03:32:53.920Z,37.55
2019-02-21T03:35:20.897Z,34.75
2019-02-21T03:37:47.810Z,34.45
2019-02-21T03:40:14.893Z,36.73
2019-02-21T03:42:41.788Z,34.18
2019-02-21T03:45:09.390Z,33.10
2019-02-21T03:47:36.202Z,35.85
2019-02-21T03:50:03.385Z,38.23
2019-02-21T03:52:30.304Z,40.58
2019-02-21T03:54:57.372Z,36.80
2019-02-21T03:57:24.364Z,41.83
2019-02-21T03:59:51.469Z,37.78
2019-02-21T04:02:18.455Z,42.40
2019-02-21T04:04:45.441Z,37.20
2019-02-21T04:07:12.409Z,39.98
2019-02-21T04:09:39.210Z,35.33
2019-02-21T04:12:06.126Z,44.38
2019-02-21T04:14:33.317Z,42.30
2019-02-21T04:17:00.209Z,47.45
2019-02-21T04:19:27.190Z,50.83
2019-02-21T04:21:53.986Z,46.70
2019-02-21T04:24:22.468Z,48.52
2019-02-21T04:26:49.397Z,135.85
2019-02-21T04:29:16.454Z,108.60
2019-02-21T04:31:43.336Z,100.92
2019-02-21T04:34:10.226Z,52.85
2019-02-21T04:36:37.018Z,43.38
2019-02-21T04:39:04.388Z,40.90
2019-02-21T04:41:31.252Z,39.65
2019-02-21T04:43:58.059Z,40.55
2019-02-21T04:46:25.037Z,49.40
2019-02-21T04:48:51.824Z,37.50
2019-02-21T04:51:18.689Z,34.45
2019-02-21T04:53:45.487Z,40.92
2019-02-21T04:56:12.265Z,254.28
2019-02-21T04:58:39.146Z,269.48
2019-02-21T05:01:06.111Z,312.45
2019-02-21T05:03:32.918Z,208.50
2019-02-21T05:05:59.792Z,94.05
2019-02-21T05:08:26.660Z,68.97
2019-02-21T05:10:53.466Z,58.20
2019-02-21T05:13:20.359Z,48.13
2019-02-21T05:15:47.225Z,55.80
2019-02-21T05:18:14.021Z,51.92
2019-02-21T05:20:40.813Z,46.85
2019-02-21T05:23:07.593Z,48.80
2019-02-21T05:25:34.373Z,38.60
2019-02-21T05:28:41.208Z,34.78
2019-02-21T05:31:12.917Z,31.85
2019-02-21T05:33:45.246Z,39.33
2019-02-21T05:36:30.724Z,33.28
2019-02-21T05:39:17.291Z,35.13
2019-02-21T05:41:50.032Z,42.35
2019-02-21T05:44:22.614Z,42.48
2019-02-21T05:46:53.933Z,42.50
2019-02-21T05:49:45.981Z,47.70
2019-02-21T05:52:17.508Z,49.00
2019-02-21T05:54:53.081Z,42.75
2019-02-21T05:57:38.248Z,46.95
2019-02-21T06:00:22.310Z,43.52
2019-02-21T06:03:02.063Z,42.60
2019-02-21T06:05:37.265Z,43.58
2019-02-21T06:08:13.652Z,42.75
2019-02-21T06:11:17.882Z,44.03
2019-02-21T06:14:14.404Z,48.92
2019-02-21T06:16:58.760Z,44.88
2019-02-21T06:19:38.703Z,44.53
2019-02-21T06:22:28.194Z,46.40
2019-02-21T06:25:16.133Z,50.73
2019-02-21T06:27:58.526Z,50.85
2019-02-21T06:30:43.686Z,48.98
2019-02-21T06:33:10.666Z,47.95
2019-02-21T06:35:37.658Z,46.33
2019-02-21T06:38:04.566Z,46.70
2019-02-21T06:40:31.572Z,51.15
2019-02-21T06:42:58.342Z,47.65
2019-02-21T06:45:25.234Z,43.70
2019-02-21T06:47:52.018Z,43.80
2019-02-21T06:50:26.418Z,51.65
2019-02-21T06:52:47.494Z,38.55
2019-02-21T06:55:14.352Z,38.70
2019-02-21T06:57:41.191Z,181.50
2019-02-21T07:00:08.301Z,43.52
2019-02-21T07:02:35.073Z,52.03
2019-02-21T07:05:02.005Z,39.45
2019-02-21T07:07:31.569Z,37.10
2019-02-21T07:09:58.449Z,39.10
2019-02-21T07:12:25.229Z,36.05
2019-02-21T07:14:52.109Z,36.58
2019-02-21T07:17:20.311Z,34.13
2019-02-21T07:19:47.135Z,32.77
2019-02-21T07:22:17.660Z,30.67
2019-02-21T07:24:43.909Z,27.40
2019-02-21T07:27:10.703Z,27.07
2019-02-21T07:29:38.807Z,33.37
2019-02-21T07:32:05.890Z,31.00
2019-02-21T07:34:32.770Z,33.90
2019-02-21T07:36:59.559Z,32.93
2019-02-21T07:39:35.729Z,39.13
2019-02-21T07:41:55.820Z,31.73
2019-02-21T07:44:22.726Z,32.70
2019-02-21T07:46:49.513Z,35.97
2019-02-21T07:49:16.318Z,32.57
2019-02-21T07:51:43.115Z,33.20
2019-02-21T07:54:10.100Z,28.87
2019-02-21T07:56:42.116Z,26.10
2019-02-21T07:59:05.688Z,27.00
2019-02-21T08:01:32.577Z,31.10
2019-02-21T08:03:59.477Z,28.67
2019-02-21T08:06:26.286Z,28.20
2019-02-21T08:08:53.171Z,35.67
2019-02-21T08:11:20.077Z,27.43
2019-02-21T08:13:46.948Z,25.33
2019-02-21T08:16:13.933Z,28.50
2019-02-21T08:18:40.855Z,26.73
2019-02-21T08:21:07.897Z,28.33
2019-02-21T08:23:34.796Z,33.27
2019-02-21T08:26:01.583Z,25.30
2019-02-21T08:28:28.451Z,27.33
2019-02-21T08:30:57.943Z,29.57
2019-02-21T08:33:30.737Z,28.77
2019-02-21T08:35:57.962Z,31.90
2019-02-21T08:38:25.000Z,27.97
2019-02-21T08:40:53.320Z,33.37
2019-02-21T08:43:20.594Z,31.67
2019-02-21T08:45:47.459Z,31.43
2019-02-21T08:48:14.341Z,29.53
2019-02-21T08:50:41.222Z,27.87
2019-02-21T08:53:07.993Z,31.83
2019-02-21T08:55:34.773Z,23.83
2019-02-21T08:58:01.558Z,23.53
2019-02-21T09:00:31.313Z,24.10
2019-02-21T09:02:57.506Z,27.17
2019-02-21T09:05:24.578Z,25.23
2019-02-21T09:07:51.555Z,24.43
2019-02-21T09:10:18.551Z,26.87
2019-02-21T09:12:48.200Z,26.10
2019-02-21T09:15:15.101Z,25.03
2019-02-21T09:17:42.009Z,25.13
2019-02-21T09:20:09.276Z,25.40
2019-02-21T09:22:36.270Z,21.73
2019-02-21T09:25:03.605Z,26.43
2019-02-21T09:27:30.506Z,20.60
2019-02-21T09:29:57.297Z,21.43
2019-02-21T09:32:24.195Z,21.43
2019-02-21T09:34:50.982Z,23.50
2019-02-21T09:37:17.871Z,23.50
2019-02-21T09:39:44.669Z,24.83
2019-02-21T09:42:11.454Z,19.53
2019-02-21T09:44:38.225Z,21.27
2019-02-21T09:47:05.020Z,22.50
2019-02-21T09:49:31.810Z,21.97
2019-02-21T09:51:58.614Z,23.07
2019-02-21T09:54:25.486Z,22.17
2019-02-21T09:56:53.257Z,22.70
2019-02-21T09:59:20.173Z,19.43
2019-02-21T10:01:47.083Z,22.67
2019-02-21T10:04:13.853Z,22.43
2019-02-21T10:06:40.685Z,18.60
2019-02-21T10:09:07.673Z,23.50
2019-02-21T10:11:34.690Z,20.90
2019-02-21T10:14:01.704Z,20.03
2019-02-21T10:16:28.525Z,23.07
2019-02-21T10:18:55.303Z,20.63
2019-02-21T10:21:22.180Z,20.13
2019-02-21T10:23:48.977Z,21.07
2019-02-21T10:26:15.959Z,19.60
2019-02-21T10:28:45.037Z,19.90
2019-02-21T10:31:11.681Z,18.97
2019-02-21T10:33:46.472Z,19.33
2019-02-21T10:36:07.335Z,18.70
2019-02-21T10:38:34.208Z,21.07
2019-02-21T10:41:00.985Z,22.17
2019-02-21T10:43:27.776Z,20.87
2019-02-21T10:45:54.646Z,20.80
2019-02-21T10:48:21.531Z,20.43
2019-02-21T10:50:48.500Z,23.93
2019-02-21T10:53:15.393Z,20.07
2019-02-21T10:55:42.161Z,16.97
2019-02-21T10:58:09.069Z,17.87
2019-02-21T11:00:36.030Z,20.00
2019-02-21T11:03:03.029Z,18.47
2019-02-21T11:05:30.015Z,17.10
2019-02-21T11:07:57.002Z,19.43
2019-02-21T11:10:27.204Z,17.37
2019-02-21T11:12:54.261Z,20.27
2019-02-21T11:15:22.137Z,12.40
2019-02-21T11:17:49.154Z,11.77
2019-02-21T11:20:16.044Z,14.03
2019-02-21T11:22:42.985Z,15.33
2019-02-21T11:25:09.920Z,17.90
2019-02-21T11:27:37.486Z,13.87
2019-02-21T11:30:05.741Z,11.53
2019-02-21T11:32:32.765Z,13.23
2019-02-21T11:35:06.354Z,11.93
2019-02-21T11:37:28.230Z,12.93
2019-02-21T11:39:55.113Z,13.03
2019-02-21T11:42:21.889Z,10.37
2019-02-21T11:44:48.761Z,11.87
2019-02-21T11:47:15.729Z,11.57
2019-02-21T11:49:42.527Z,13.83
2019-02-21T11:52:10.407Z,13.80
2019-02-21T11:54:37.491Z,15.23
2019-02-21T11:57:04.483Z,13.20
2019-02-21T11:59:31.384Z,14.97
2019-02-21T12:01:58.264Z,16.17
2019-02-21T12:04:25.261Z,16.67
2019-02-21T12:06:52.024Z,14.83
2019-02-21T12:09:18.814Z,16.00
2019-02-21T12:11:45.692Z,16.10
2019-02-21T12:14:12.601Z,13.97
2019-02-21T12:16:39.377Z,15.40
2019-02-21T12:19:06.241Z,14.60
2019-02-21T12:21:33.051Z,13.37
2019-02-21T12:23:59.828Z,13.73
2019-02-21T12:26:26.607Z,13.23
2019-02-21T12:28:53.388Z,18.67
2019-02-21T12:31:20.239Z,12.20
2019-02-21T12:33:47.037Z,13.43
2019-02-21T12:36:13.937Z,13.23
2019-02-21T12:38:41.079Z,15.77
2019-02-21T12:41:08.142Z,16.37
2019-02-21T12:43:34.940Z,17.47
2019-02-21T12:46:01.856Z,12.73
2019-02-21T12:48:28.693Z,16.00
2019-02-21T12:50:55.497Z,21.27
2019-02-21T12:53:22.286Z,14.93
2019-02-21T12:55:49.088Z,16.30
2019-02-21T12:58:15.880Z,13.63
2019-02-21T13:00:42.793Z,15.20
2019-02-21T13:03:09.690Z,13.87
2019-02-21T13:05:40.876Z,14.63
2019-02-21T13:08:05.294Z,17.10
2019-02-21T13:10:34.793Z,13.87
2019-02-21T13:13:00.904Z,16.90
2019-02-21T13:15:27.685Z,15.77
2019-02-21T13:17:54.465Z,15.13
2019-02-21T13:20:21.361Z,14.00
2019-02-21T13:22:48.122Z,12.90
2019-02-21T13:25:15.121Z,13.07
2019-02-21T13:27:42.136Z,16.87
2019-02-21T13:30:11.538Z,10.80
2019-02-21T13:32:38.431Z,10.87
2019-02-21T13:35:05.930Z,8.87
2019-02-21T13:37:32.706Z,10.07
2019-02-21T13:40:00.602Z,10.03
2019-02-21T13:42:28.846Z,10.53
2019-02-21T13:44:55.949Z,11.07
2019-02-21T13:47:22.834Z,10.17
2019-02-21T13:49:49.620Z,10.50
2019-02-21T13:52:16.488Z,10.57
2019-02-21T13:54:43.463Z,15.13
2019-02-21T13:57:10.381Z,10.10
2019-02-21T13:59:40.019Z,10.27
2019-02-21T14:02:06.941Z,10.30
2019-02-21T14:04:33.841Z,11.87
2019-02-21T14:07:00.737Z,13.70
2019-02-21T14:09:27.524Z,11.90
2019-02-21T14:11:54.399Z,9.63
2019-02-21T14:14:21.284Z,10.40
2019-02-21T14:16:48.198Z,10.73
2019-02-21T14:19:15.017Z,18.23
2019-02-21T14:21:43.776Z,11.13
2019-02-21T14:24:10.725Z,14.00
2019-02-21T14:26:37.651Z,11.27
2019-02-21T14:29:04.441Z,13.60
2019-02-21T14:31:33.560Z,14.33
2019-02-21T14:34:00.149Z,11.63
2019-02-21T14:36:27.168Z,10.90
2019-02-21T14:38:53.949Z,12.47
2019-02-21T14:41:20.775Z,9.47
2019-02-21T14:43:47.561Z,12.50
2019-02-21T14:46:14.561Z,10.13
2019-02-21T14:48:41.490Z,17.23
2019-02-21T14:51:08.398Z,15.47
2019-02-21T14:53:35.278Z,13.80
2019-02-21T14:56:02.195Z,9.30
2019-02-21T14:58:29.165Z,6.63
2019-02-21T15:00:56.144Z,14.00
2019-02-21T15:03:23.076Z,12.47
2019-02-21T15:05:49.887Z,10.87
2019-02-21T15:08:22.075Z,7.67
2019-02-21T15:10:49.209Z,14.37
2019-02-21T15:13:16.118Z,7.83
2019-02-21T15:15:43.132Z,16.73
2019-02-21T15:18:11.274Z,16.93
2019-02-21T15:20:38.483Z,21.07
2019-02-21T15:23:05.294Z,12.73
2019-02-21T15:25:32.316Z,13.70
2019-02-21T15:27:59.326Z,14.07
2019-02-21T15:30:26.353Z,18.03
2019-02-21T15:32:53.279Z,12.33
2019-02-21T15:35:20.259Z,18.63
2019-02-21T15:37:47.243Z,12.73
2019-02-21T15:40:14.233Z,11.57
2019-02-21T15:42:41.134Z,13.43
2019-02-21T15:45:10.258Z,10.87
2019-02-21T15:47:37.157Z,14.37
2019-02-21T15:50:05.488Z,9.43
2019-02-21T15:52:32.531Z,11.80
2019-02-21T15:55:09.026Z,11.77
2019-02-21T15:57:28.021Z,10.67
2019-02-21T15:59:54.878Z,14.33
2019-02-21T16:02:21.806Z,12.60
2019-02-21T16:04:48.706Z,10.97
2019-02-21T16:07:25.070Z,10.77
2019-02-21T16:09:51.995Z,13.53
2019-02-21T16:12:18.820Z,18.00
2019-02-21T16:14:45.629Z,11.43
2019-02-21T16:17:12.586Z,14.97
2019-02-21T16:19:39.482Z,15.40
2019-02-21T16:22:06.395Z,18.10
2019-02-21T16:24:33.282Z,40.97
2019-02-21T16:27:00.323Z,32.87
2019-02-21T16:29:27.166Z,23.83
2019-02-21T16:31:54.137Z,14.97
2019-02-21T16:34:21.145Z,13.87
2019-02-21T16:36:48.050Z,16.30
2019-02-21T16:39:15.045Z,18.73
2019-02-21T16:41:44.263Z,28.17
2019-02-21T16:44:10.734Z,29.50
2019-02-21T16:46:37.742Z,23.63
2019-02-21T16:49:04.768Z,24.17
2019-02-21T16:51:31.582Z,23.70
2019-02-21T16:53:58.475Z,24.27
2019-02-21T16:56:26.638Z,20.33
2019-02-21T16:58:53.757Z,18.37
2019-02-21T17:01:20.650Z,12.83
2019-02-21T17:03:47.560Z,20.83
2019-02-21T17:06:14.361Z,21.60
2019-02-21T17:08:41.225Z,14.73
2019-02-21T17:11:08.121Z,16.27
2019-02-21T17:13:34.933Z,19.43
2019-02-21T17:16:01.824Z,19.37
2019-02-21T17:18:28.609Z,20.80
2019-02-21T17:20:55.394Z,28.57
2019-02-21T17:23:23.078Z,27.27
2019-02-21T17:25:50.279Z,35.57
2019-02-21T17:28:17.162Z,22.60
2019-02-21T17:30:44.156Z,23.33
2019-02-21T17:33:11.180Z,23.80
2019-02-21T17:35:38.190Z,24.23
2019-02-21T17:38:05.195Z,21.10
2019-02-21T17:40:32.134Z,23.53
2019-02-21T17:42:59.022Z,23.50
2019-02-21T17:45:25.993Z,16.77
2019-02-21T17:47:52.947Z,20.60
2019-02-21T17:50:20.075Z,29.17
2019-02-21T17:52:47.086Z,20.37
2019-02-21T17:55:14.363Z,15.60
2019-02-21T17:57:41.500Z,15.13
2019-02-21T18:00:16.891Z,12.37
2019-02-21T18:02:42.932Z,28.03
2019-02-21T18:05:09.987Z,42.73
2019-02-21T18:07:36.974Z,21.37
2019-02-21T18:10:05.583Z,25.83
2019-02-21T18:12:32.423Z,17.10
2019-02-21T18:14:59.254Z,21.37
2019-02-21T18:17:26.594Z,23.57
2019-02-21T18:19:53.570Z,19.57
2019-02-21T18:22:20.464Z,14.40
2019-02-21T18:24:47.411Z,15.07
2019-02-21T18:27:14.224Z,18.13
2019-02-21T18:29:43.592Z,14.93
2019-02-21T18:32:10.097Z,18.23
2019-02-21T18:34:36.993Z,20.87
2019-02-21T18:37:04.089Z,21.07
2019-02-21T18:39:31.113Z,23.33
2019-02-21T18:41:58.013Z,20.00
2019-02-21T18:44:25.255Z,20.90
2019-02-21T18:46:55.181Z,14.70
2019-02-21T18:49:21.874Z,15.43
2019-02-21T18:51:49.287Z,13.37
2019-02-21T18:54:16.667Z,13.40
2019-02-21T18:56:43.620Z,18.83
2019-02-21T18:59:10.621Z,13.30
2019-02-21T19:01:37.636Z,15.70
2019-02-21T19:04:04.634Z,13.27
2019-02-21T19:06:31.435Z,18.03
2019-02-21T19:08:58.340Z,14.67
2019-02-21T19:11:25.396Z,18.93
2019-02-21T19:13:52.322Z,18.53
2019-02-21T19:16:19.322Z,18.83
2019-02-21T19:18:46.105Z,14.70
2019-02-21T19:21:13.142Z,17.67
2019-02-21T19:23:40.015Z,20.40
2019-02-21T19:26:06.918Z,17.07
2019-02-21T19:28:33.798Z,23.43
2019-02-21T19:31:05.165Z,19.27
2019-02-21T19:33:32.160Z,22.53
2019-02-21T19:35:59.257Z,15.13
2019-02-21T19:38:26.133Z,17.23
2019-02-21T19:40:53.129Z,22.77
2019-02-21T19:43:20.015Z,19.77
2019-02-21T19:45:46.994Z,26.77
2019-02-21T19:48:13.837Z,20.33
2019-02-21T19:50:41.037Z,21.57
2019-02-21T19:53:08.050Z,19.87
2019-02-21T19:55:35.228Z,20.70
2019-02-21T19:58:02.244Z,22.17
2019-02-21T20:00:30.272Z,23.20
2019-02-21T20:02:57.178Z,23.73
2019-02-21T20:05:24.358Z,31.90
2019-02-21T20:07:51.360Z,28.30
2019-02-21T20:10:18.424Z,26.80
2019-02-21T20:12:45.531Z,28.47
2019-02-21T20:15:12.636Z,23.73
2019-02-21T20:17:39.649Z,21.07
2019-02-21T20:20:08.050Z,26.27
2019-02-21T20:22:35.060Z,20.93
2019-02-21T20:25:02.069Z,21.07
2019-02-21T20:27:29.103Z,21.93
2019-02-21T20:29:56.110Z,21.30
2019-02-21T20:32:23.133Z,25.87
2019-02-21T20:34:50.026Z,25.63
2019-02-21T20:37:16.940Z,21.40
2019-02-21T20:39:43.955Z,24.20
2019-02-21T20:42:10.761Z,25.17
2019-02-21T20:44:37.742Z,29.37
2019-02-21T20:47:04.743Z,23.73
2019-02-21T20:49:31.533Z,28.10
2019-02-21T20:51:58.449Z,27.03
2019-02-21T20:54:25.333Z,28.37
2019-02-21T20:56:52.265Z,27.43
2019-02-21T20:59:19.468Z,24.63
2019-02-21T21:01:46.429Z,24.67
2019-02-21T21:04:13.347Z,25.77
2019-02-21T21:06:40.140Z,26.60
2019-02-21T21:09:07.338Z,23.83
2019-02-21T21:11:34.148Z,20.23
2019-02-21T21:14:01.056Z,22.33
2019-02-21T21:16:27.853Z,24.30
2019-02-21T21:18:54.669Z,27.73
2019-02-21T21:21:21.562Z,27.07
2019-02-21T21:23:48.360Z,24.00
2019-02-21T21:26:15.261Z,25.60
2019-02-21T21:28:42.048Z,25.60
2019-02-21T21:31:08.957Z,29.77
2019-02-21T21:33:35.997Z,24.03
2019-02-21T21:36:02.989Z,29.20
2019-02-21T21:38:29.905Z,26.73
2019-02-21T21:40:56.709Z,27.10
2019-02-21T21:43:23.588Z,26.53
2019-02-21T21:45:50.474Z,29.57
2019-02-21T21:48:17.362Z,27.63
2019-02-21T21:50:44.257Z,28.53
2019-02-21T21:53:11.162Z,28.20
2019-02-21T21:55:38.061Z,23.67
2019-02-21T21:58:04.881Z,25.53
2019-02-21T22:00:31.769Z,26.83
2019-02-21T22:02:58.689Z,23.00
2019-02-21T22:05:25.573Z,27.47
2019-02-21T22:07:52.489Z,26.80
2019-02-21T22:10:19.382Z,25.37
2019-02-21T22:12:46.388Z,27.80
2019-02-21T22:15:13.547Z,27.27
2019-02-21T22:17:42.196Z,27.87
2019-02-21T22:20:09.527Z,26.67
2019-02-21T22:22:37.105Z,28.50
2019-02-21T22:25:04.452Z,25.87
2019-02-21T22:27:31.273Z,25.40
2019-02-21T22:29:58.263Z,23.03
2019-02-21T22:32:25.031Z,25.90
2019-02-21T22:34:52.028Z,28.43
2019-02-21T22:37:18.876Z,25.77
2019-02-21T22:39:45.704Z,25.60
2019-02-21T22:42:12.619Z,26.43
2019-02-21T22:44:39.486Z,28.10
2019-02-21T22:47:06.378Z,25.87
2019-02-21T22:49:33.270Z,27.10
2019-02-21T22:52:00.051Z,21.90
2019-02-21T22:54:26.941Z,22.40
2019-02-21T22:56:53.825Z,22.27
2019-02-21T22:59:20.734Z,22.10
2019-02-21T23:01:47.970Z,24.73
2019-02-21T23:04:44.253Z,25.70
2019-02-21T23:07:22.431Z,26.73
2019-02-21T23:09:49.314Z,30.00
2019-02-21T23:12:16.113Z,23.10
2019-02-21T23:14:43.018Z,27.37
2019-02-21T23:17:09.997Z,25.33
2019-02-21T23:19:36.992Z,26.73
2019-02-21T23:22:03.989Z,24.00
2019-02-21T23:24:31.062Z,22.23
2019-02-21T23:26:57.935Z,25.37
2019-02-21T23:29:24.921Z,20.83
2019-02-21T23:31:51.799Z,27.30
2019-02-21T23:34:47.160Z,27.43
2019-02-21T23:37:14.142Z,22.07
2019-02-21T23:39:41.244Z,24.63
2019-02-21T23:42:08.159Z,25.33
2019-02-21T23:44:35.053Z,26.00
2019-02-21T23:47:02.053Z,25.93
2019-02-21T23:49:28.841Z,26.97
2019-02-21T23:51:55.725Z,22.93
2019-02-21T23:54:22.537Z,24.90
2019-02-21T23:56:49.449Z,26.23
2019-02-21T23:59:16.347Z,24.77
